Time;durP1;ratioP1;P1;durP2;ratioP2;P2;SDS_P1;SDS_P2;PMS_P1;PMS_P2;Temp;Humidity;BMP_temperature;BMP_pressure;BME280_temperature;BME280_humidity;BME280_pressure;Samples;Min_cycle;Max_cycle;Signal;HPM_P1;HPM_P2
2021/12/11 00:00:45;;;;;;;;;;;;;;;14.17;61.07;100220.16;1058427;28;608;-61
2021/12/11 00:01:42;;;;;;;;;;;;;;;14.15;60.28;100224.81;1058182;28;1147;-61
2021/12/11 00:02:33;;;;;;;;;;;;;;;14.15;61.02;100227.50;1057668;28;719;-61
2021/12/11 00:03:24;;;;;;;;;;;;;;;14.17;60.78;100230.03;1057701;28;644;-62
2021/12/11 00:04:14;;;;;;;;;;;;;;;14.17;60.40;100232.72;1053896;28;839;-61
2021/12/11 00:05:05;;;;;;;;;;;;;;;14.15;61.20;100235.53;1053225;28;1953;-62
2021/12/11 00:05:55;;;;;;;;;;;;;;;14.15;60.50;100235.53;1057464;28;714;-61
2021/12/11 00:06:46;;;;;;;;;;;;;;;14.18;60.84;100237.94;1053774;28;715;-61
2021/12/11 00:07:36;;;;;;;;;;;;;;;14.17;61.28;100241.59;1053255;28;692;-62
2021/12/11 00:08:26;;;;;;;;;;;;;;;14.16;60.68;100233.69;1057409;28;1769;-61
2021/12/11 00:09:17;;;;;;;;;;;;;;;14.16;60.65;100236.38;1058382;28;637;-61
2021/12/11 00:10:07;;;;;;;;;;;;;;;14.14;61.09;100233.88;1058265;28;855;-62
2021/12/11 00:10:58;;;;;;;;;;;;;;;14.15;60.70;100237.38;1053826;28;695;-62
2021/12/11 00:11:48;;;;;;;;;;;;;;;14.15;60.63;100230.16;1053135;28;622;-62
2021/12/11 00:12:40;;;;;;;;;;;;;;;14.15;60.70;100238.19;1057383;28;758;-62
2021/12/11 00:13:30;;;;;;;;;;;;;;;14.15;60.92;100242.75;1053779;28;633;-63
2021/12/11 00:14:20;;;;;;;;;;;;;;;14.15;60.43;100238.19;1053103;28;759;-62
2021/12/11 00:15:11;;;;;;;;;;;;;;;14.15;60.71;100234.72;1057739;28;703;-62
2021/12/11 00:16:01;;;;;;;;;;;;;;;14.15;60.85;100232.84;1058294;28;668;-62
2021/12/11 00:16:52;;;;;;;;;;;;;;;14.15;60.36;100237.38;1053664;28;692;-62
2021/12/11 00:17:42;;;;;;;;;;;;;;;14.12;61.41;100243.88;1053123;28;687;-62
2021/12/11 00:18:33;;;;;;;;;;;;;;;14.12;61.03;100246.53;1057537;28;732;-62
2021/12/11 00:19:23;;;;;;;;;;;;;;;14.14;60.40;100249.94;1057996;28;683;-62
2021/12/11 00:20:14;;;;;;;;;;;;;;;14.12;60.31;100246.53;1061832;27;814;-62
2021/12/11 00:21:04;;;;;;;;;;;;;;;14.12;60.69;100253.72;1059776;27;1477;-62
2021/12/11 00:21:54;;;;;;;;;;;;;;;14.12;60.90;100254.59;1058114;28;1828;-62
2021/12/11 00:22:45;;;;;;;;;;;;;;;14.12;60.76;100249.22;1057628;28;765;-62
2021/12/11 00:23:35;;;;;;;;;;;;;;;14.12;61.09;100245.69;1058304;28;625;-63
2021/12/11 00:24:29;;;;;;;;;;;;;;;14.12;61.29;100251.06;1057603;28;665;-63
2021/12/11 00:25:20;;;;;;;;;;;;;;;14.12;60.53;100243.00;1054415;28;717;-63
2021/12/11 00:26:10;;;;;;;;;;;;;;;14.11;60.45;100246.69;1053097;28;673;-63
2021/12/11 00:27:02;;;;;;;;;;;;;;;14.11;61.00;100252.88;1057494;28;782;-65
2021/12/11 00:27:53;;;;;;;;;;;;;;;14.11;61.19;100249.34;1058240;28;636;-62
2021/12/11 00:28:43;;;;;;;;;;;;;;;14.10;60.78;100250.34;1057635;28;736;-61
2021/12/11 00:29:34;;;;;;;;;;;;;;;14.11;60.99;100252.88;1057535;28;669;-61
2021/12/11 00:30:24;;;;;;;;;;;;;;;14.09;60.50;100254.84;1057553;28;699;-61
2021/12/11 00:31:15;;;;;;;;;;;;;;;14.10;60.86;100255.69;1057406;28;808;-61
2021/12/11 00:32:05;;;;;;;;;;;;;;;14.10;61.17;100266.41;1058306;28;652;-61
2021/12/11 00:32:55;;;;;;;;;;;;;;;14.10;60.69;100267.25;1057493;28;1355;-61
2021/12/11 00:33:46;;;;;;;;;;;;;;;14.10;61.33;100269.94;1057530;28;636;-61
2021/12/11 00:34:36;;;;;;;;;;;;;;;14.10;60.61;100267.25;1058320;28;663;-61
2021/12/11 00:35:27;;;;;;;;;;;;;;;14.10;60.89;100271.78;1057551;28;696;-62
2021/12/11 00:36:17;;;;;;;;;;;;;;;14.08;60.80;100274.59;1057726;28;624;-62
2021/12/11 00:37:07;;;;;;;;;;;;;;;14.08;61.48;100279.94;1058283;28;597;-62
2021/12/11 00:37:58;;;;;;;;;;;;;;;14.08;60.57;100277.28;1057554;28;692;-61
2021/12/11 00:38:49;;;;;;;;;;;;;;;14.08;60.51;100276.41;1057550;28;691;-61
2021/12/11 00:39:40;;;;;;;;;;;;;;;14.09;60.57;100286.16;1060759;27;1683;-61
2021/12/11 00:40:30;;;;;;;;;;;;;;;14.07;61.24;100278.25;1061200;27;648;-61
2021/12/11 00:41:21;;;;;;;;;;;;;;;14.07;61.06;100283.59;1061180;27;1005;-61
2021/12/11 00:42:12;;;;;;;;;;;;;;;14.06;60.52;100278.38;1061190;27;665;-61
2021/12/11 00:43:04;;;;;;;;;;;;;;;14.07;60.21;100283.59;1061483;27;688;-61
2021/12/11 00:44:00;;;;;;;;;;;;;;;14.07;60.72;100285.44;1061184;27;717;-60
2021/12/11 00:44:51;;;;;;;;;;;;;;;14.07;60.73;100294.31;1061212;27;1902;-61
2021/12/11 00:45:41;;;;;;;;;;;;;;;14.08;60.47;100287.13;1061157;27;719;-60
2021/12/11 00:46:32;;;;;;;;;;;;;;;14.07;61.07;100288.13;1060195;27;707;-61
2021/12/11 00:47:22;;;;;;;;;;;;;;;14.06;60.62;100302.50;1061217;27;631;-61
2021/12/11 00:48:13;;;;;;;;;;;;;;;14.07;60.90;100296.16;1056489;28;1517;-61
2021/12/11 00:49:03;;;;;;;;;;;;;;;14.07;60.57;100297.00;1057681;28;681;-60
2021/12/11 00:49:53;;;;;;;;;;;;;;;14.06;60.57;100302.50;1057575;28;759;-61
2021/12/11 00:50:44;;;;;;;;;;;;;;;14.05;60.44;100304.31;1057801;28;621;-61
2021/12/11 00:51:34;;;;;;;;;;;;;;;14.05;60.86;100293.59;1057617;28;648;-60
2021/12/11 00:52:25;;;;;;;;;;;;;;;14.04;60.28;100307.97;1057551;28;624;-60
2021/12/11 00:53:15;;;;;;;;;;;;;;;14.03;60.63;100302.75;1057680;28;667;-60
2021/12/11 00:54:06;;;;;;;;;;;;;;;14.02;61.10;100309.94;1057314;28;2137;-60
2021/12/11 00:54:56;;;;;;;;;;;;;;;14.03;60.31;100311.66;1056409;27;1623;-60
2021/12/11 00:55:46;;;;;;;;;;;;;;;14.04;60.59;100310.66;1057588;28;640;-60
2021/12/11 00:56:37;;;;;;;;;;;;;;;14.03;61.07;100313.47;1057104;28;722;-60
2021/12/11 00:57:27;;;;;;;;;;;;;;;14.04;60.98;100310.66;1061757;27;687;-60
2021/12/11 00:58:18;;;;;;;;;;;;;;;14.03;60.47;100308.97;1061801;27;779;-59
2021/12/11 00:59:08;;;;;;;;;;;;;;;14.03;60.38;100311.66;1062017;27;691;-60
2021/12/11 00:59:59;;;;;;;;;;;;;;;14.04;60.16;100307.13;1061881;27;684;-60
2021/12/11 01:00:49;;;;;;;;;;;;;;;14.03;60.46;100319.69;1061936;28;707;-60
2021/12/11 01:01:39;;;;;;;;;;;;;;;14.03;60.31;100319.69;1061779;27;797;-60
2021/12/11 01:02:30;;;;;;;;;;;;;;;14.03;60.65;100318.84;1062019;28;809;-60
2021/12/11 01:03:20;;;;;;;;;;;;;;;14.03;60.81;100330.41;1057633;28;672;-60
2021/12/11 01:04:11;;;;;;;;;;;;;;;14.02;60.03;100323.34;1057631;28;664;-59
2021/12/11 01:05:01;;;;;;;;;;;;;;;14.02;61.03;100328.69;1059067;28;1909;-60
2021/12/11 01:05:51;;;;;;;;;;;;;;;14.02;60.64;100333.22;1061636;28;841;-59
2021/12/11 01:06:45;;;;;;;;;;;;;;;14.01;60.74;100328.84;1061769;28;761;-62
2021/12/11 01:07:35;;;;;;;;;;;;;;;14.00;60.46;100330.66;1058080;28;699;-63
2021/12/11 01:08:26;;;;;;;;;;;;;;;14.01;60.91;100332.34;1057003;28;692;-62
2021/12/11 01:09:16;;;;;;;;;;;;;;;14.01;60.70;100337.72;1060532;28;1481;-63
2021/12/11 01:10:07;;;;;;;;;;;;;;;14.01;61.23;100335.03;1057512;28;682;-62
2021/12/11 01:10:57;;;;;;;;;;;;;;;13.99;60.55;100331.66;1058599;28;1429;-62
2021/12/11 01:11:48;;;;;;;;;;;;;;;13.99;60.56;100338.84;1061591;28;722;-67
2021/12/11 01:12:45;;;;;;;;;;;;;;;13.99;60.40;100342.34;1061913;28;1002;-62
2021/12/11 01:13:35;;;;;;;;;;;;;;;13.99;60.04;100345.03;1056913;28;675;-61
2021/12/11 01:14:33;;;;;;;;;;;;;;;13.99;60.66;100344.19;1057524;28;703;-61
2021/12/11 01:15:24;;;;;;;;;;;;;;;13.99;60.53;100339.69;1057722;28;667;-61
2021/12/11 01:16:16;;;;;;;;;;;;;;;13.98;61.08;100342.50;1060663;28;1911;-60
2021/12/11 01:17:07;;;;;;;;;;;;;;;13.96;61.31;100334.63;1058983;28;1417;-61
2021/12/11 01:18:41;;;;;;;;;;;;;;;13.98;60.42;100342.50;1057522;28;932;-60
2021/12/11 01:19:17;;;;;;;;;;;;;;;13.96;61.08;100345.34;1060267;28;1405;-60
2021/12/11 01:20:08;;;;;;;;;;;;;;;13.98;61.04;100347.84;1061863;28;1325;-60
2021/12/11 01:21:07;;;;;;;;;;;;;;;13.99;60.78;100349.53;1060339;28;1330;-62
2021/12/11 01:22:00;;;;;;;;;;;;;;;13.98;61.22;100351.38;1056498;28;625;-62
2021/12/11 01:22:50;;;;;;;;;;;;;;;13.99;61.25;100350.41;1057571;28;1580;-62
2021/12/11 01:24:42;;;;;;;;;;;;;;;13.99;60.17;100350.41;1061249;28;703;-62
2021/12/11 01:25:33;;;;;;;;;;;;;;;13.98;61.15;100348.69;1057467;28;694;-62
2021/12/11 01:26:23;;;;;;;;;;;;;;;13.99;61.05;100347.72;1058173;28;584;-62
2021/12/11 01:27:14;;;;;;;;;;;;;;;13.97;60.67;100344.34;1061334;28;1153;-63
2021/12/11 01:28:04;;;;;;;;;;;;;;;13.96;61.49;100345.34;1061826;28;687;-63
2021/12/11 01:28:54;;;;;;;;;;;;;;;13.98;60.79;100353.22;1061037;28;1769;-63
2021/12/11 01:29:45;;;;;;;;;;;;;;;13.97;61.15;100347.03;1057477;28;758;-62
2021/12/11 01:30:35;;;;;;;;;;;;;;;13.96;60.72;100356.03;1057501;28;676;-63
2021/12/11 01:31:27;;;;;;;;;;;;;;;13.96;60.56;100356.03;1056968;28;854;-62
2021/12/11 01:32:17;;;;;;;;;;;;;;;13.97;60.87;100356.91;1057424;28;629;-62
2021/12/11 01:33:08;;;;;;;;;;;;;;;13.96;61.43;100365.91;1059795;28;1636;-62
2021/12/11 01:33:58;;;;;;;;;;;;;;;13.95;61.10;100365.06;1059032;27;799;-62
2021/12/11 01:34:50;;;;;;;;;;;;;;;13.96;60.68;100365.91;1057911;28;663;-62
2021/12/11 01:35:40;;;;;;;;;;;;;;;13.94;60.81;100379.44;1058854;28;1741;-63
2021/12/11 01:36:31;;;;;;;;;;;;;;;13.93;61.36;100380.41;1061058;28;617;-63
2021/12/11 01:37:21;;;;;;;;;;;;;;;13.94;60.56;100378.59;1057681;28;643;-62
2021/12/11 01:38:11;;;;;;;;;;;;;;;13.95;60.80;100386.50;1056844;28;685;-61
2021/12/11 01:39:02;;;;;;;;;;;;;;;13.94;61.14;100390.16;1058760;28;1456;-61
2021/12/11 01:39:52;;;;;;;;;;;;;;;13.95;60.79;100389.16;1056669;28;794;-62
2021/12/11 01:40:43;;;;;;;;;;;;;;;13.95;61.29;100388.31;1057273;28;616;-62
2021/12/11 01:41:33;;;;;;;;;;;;;;;13.96;61.30;100393.56;1058042;28;636;-62
2021/12/11 01:42:23;;;;;;;;;;;;;;;13.96;61.12;100396.22;1056794;28;876;-62
2021/12/11 01:43:14;;;;;;;;;;;;;;;13.95;61.07;100399.03;1060221;28;1554;-62
2021/12/11 01:44:04;;;;;;;;;;;;;;;13.95;60.80;100402.56;1061861;28;718;-62
2021/12/11 01:44:55;;;;;;;;;;;;;;;13.95;61.58;100404.41;1060922;28;1885;-62
2021/12/11 01:45:45;;;;;;;;;;;;;;;13.93;61.57;100403.69;1056479;28;637;-62
2021/12/11 01:46:36;;;;;;;;;;;;;;;13.94;61.02;100408.91;1057516;28;732;-62
2021/12/11 01:47:26;;;;;;;;;;;;;;;13.95;60.94;100412.44;1056158;28;737;-62
2021/12/11 01:48:16;;;;;;;;;;;;;;;13.94;60.65;100408.91;1058306;28;1232;-62
2021/12/11 01:49:07;;;;;;;;;;;;;;;13.96;60.58;100419.50;1054212;28;1556;-62
2021/12/11 01:49:57;;;;;;;;;;;;;;;13.95;61.37;100413.28;1053707;28;691;-62
2021/12/11 01:50:48;;;;;;;;;;;;;;;13.93;60.81;100420.59;1056774;28;664;-61
2021/12/11 01:51:38;;;;;;;;;;;;;;;13.93;60.66;100420.59;1056977;28;691;-61
2021/12/11 01:52:37;;;;;;;;;;;;;;;13.94;60.61;100424.13;1058116;28;747;-62
2021/12/11 01:53:28;;;;;;;;;;;;;;;13.93;61.55;100431.31;1057438;28;664;-62
2021/12/11 01:54:18;;;;;;;;;;;;;;;13.93;61.08;100425.97;1056604;28;748;-61
2021/12/11 01:55:09;;;;;;;;;;;;;;;13.93;60.78;100430.47;1057420;28;668;-61
2021/12/11 01:55:59;;;;;;;;;;;;;;;13.92;60.79;100434.97;1057516;28;939;-61
2021/12/11 01:56:49;;;;;;;;;;;;;;;13.92;60.78;100434.97;1052811;28;745;-61
2021/12/11 01:57:40;;;;;;;;;;;;;;;13.94;61.49;100434.84;1052539;28;681;-62
2021/12/11 01:58:31;;;;;;;;;;;;;;;13.93;60.70;100438.50;1055897;28;630;-62
2021/12/11 01:59:22;;;;;;;;;;;;;;;13.93;60.72;100435.81;1057979;28;1718;-62
2021/12/11 02:00:12;;;;;;;;;;;;;;;13.92;60.99;100439.47;1058168;28;675;-61
2021/12/11 02:01:03;;;;;;;;;;;;;;;13.90;60.83;100434.25;1057995;28;816;-61
2021/12/11 02:01:53;;;;;;;;;;;;;;;13.91;61.09;100438.63;1057527;28;691;-61
2021/12/11 02:02:44;;;;;;;;;;;;;;;13.90;61.43;100437.78;1057937;28;1365;-62
2021/12/11 02:03:34;;;;;;;;;;;;;;;13.91;60.86;100438.63;1062375;28;663;-62
2021/12/11 02:04:25;;;;;;;;;;;;;;;13.92;61.10;100445.69;1061044;28;613;-61
2021/12/11 02:05:15;;;;;;;;;;;;;;;13.92;60.62;100448.38;1061311;28;1543;-62
2021/12/11 02:06:06;;;;;;;;;;;;;;;13.92;60.74;100448.38;1061550;27;898;-62
2021/12/11 02:06:56;;;;;;;;;;;;;;;13.90;61.20;100450.31;1061268;27;1452;-62
2021/12/11 02:07:46;;;;;;;;;;;;;;;13.90;61.21;100450.31;1058261;28;617;-62
2021/12/11 02:08:37;;;;;;;;;;;;;;;13.90;61.02;100458.34;1058341;28;679;-62
2021/12/11 02:09:27;;;;;;;;;;;;;;;13.89;60.80;100449.47;1058836;28;696;-62
2021/12/11 02:10:18;;;;;;;;;;;;;;;13.91;61.58;100454.69;1057028;28;692;-62
2021/12/11 02:11:11;;;;;;;;;;;;;;;13.90;60.89;100447.63;1061395;27;1466;-63
2021/12/11 02:12:02;;;;;;;;;;;;;;;13.88;61.11;100446.91;1061853;27;616;-62
2021/12/11 02:12:52;;;;;;;;;;;;;;;13.88;61.31;100444.25;1057193;28;1554;-62
2021/12/11 02:13:46;;;;;;;;;;;;;;;13.88;61.19;100449.59;1053620;28;1011;-62
2021/12/11 02:14:41;;;;;;;;;;;;;;;13.89;60.96;100456.66;1056992;28;681;-62
2021/12/11 02:15:35;;;;;;;;;;;;;;;13.88;61.04;100461.16;1057425;28;793;-62
2021/12/11 02:16:26;;;;;;;;;;;;;;;13.89;61.55;100456.66;1057420;28;707;-62
2021/12/11 02:17:16;;;;;;;;;;;;;;;13.89;60.99;100462.84;1061576;27;1537;-62
2021/12/11 02:18:10;;;;;;;;;;;;;;;13.88;60.78;100460.31;1061441;27;920;-62
2021/12/11 02:19:02;;;;;;;;;;;;;;;13.89;61.40;100459.34;1055746;28;1309;-62
2021/12/11 02:19:53;;;;;;;;;;;;;;;13.88;60.57;100463.84;1057348;28;1480;-62
2021/12/11 02:20:43;;;;;;;;;;;;;;;13.89;60.97;100467.38;1062092;27;665;-62
2021/12/11 02:21:34;;;;;;;;;;;;;;;13.89;61.48;100467.38;1059296;27;746;-61
2021/12/11 02:22:24;;;;;;;;;;;;;;;13.89;60.99;100473.56;1054819;28;656;-61
2021/12/11 02:23:15;;;;;;;;;;;;;;;13.89;61.34;100470.06;1058324;28;1488;-61
2021/12/11 02:24:05;;;;;;;;;;;;;;;13.88;60.57;100471.03;1062511;27;826;-61
2021/12/11 02:24:56;;;;;;;;;;;;;;;13.88;61.59;100471.03;1062230;27;1960;-61
2021/12/11 02:25:46;;;;;;;;;;;;;;;13.87;60.67;100475.53;1057390;28;802;-62
2021/12/11 02:26:37;;;;;;;;;;;;;;;13.87;60.83;100469.31;1057932;28;665;-62
2021/12/11 02:27:27;;;;;;;;;;;;;;;13.86;61.11;100472.97;1058665;28;667;-62
2021/12/11 02:28:18;;;;;;;;;;;;;;;13.87;61.00;100477.34;1057600;27;1743;-62
2021/12/11 02:29:08;;;;;;;;;;;;;;;13.85;60.73;100465.91;1061308;27;1525;-62
2021/12/11 02:29:58;;;;;;;;;;;;;;;13.85;61.51;100469.44;1062264;27;826;-62
2021/12/11 02:30:49;;;;;;;;;;;;;;;13.84;61.13;100467.75;1062396;27;855;-62
2021/12/11 02:31:39;;;;;;;;;;;;;;;13.86;61.18;100467.63;1058304;28;704;-62
2021/12/11 02:32:32;;;;;;;;;;;;;;;13.84;60.91;100465.06;1058752;28;744;-62
2021/12/11 02:33:22;;;;;;;;;;;;;;;13.85;61.42;100476.63;1061242;27;1761;-62
2021/12/11 02:34:12;;;;;;;;;;;;;;;13.86;61.00;100483.69;1062331;27;820;-62
2021/12/11 02:35:03;;;;;;;;;;;;;;;13.86;61.17;100481.88;1062371;27;1504;-62
2021/12/11 02:35:54;;;;;;;;;;;;;;;13.87;61.02;100483.56;1057062;28;735;-62
2021/12/11 02:36:44;;;;;;;;;;;;;;;13.88;60.69;100489.78;1057951;28;707;-62
2021/12/11 02:37:37;;;;;;;;;;;;;;;13.85;61.69;100480.16;1058582;28;658;-62
2021/12/11 02:38:28;;;;;;;;;;;;;;;13.86;61.54;100481.88;1058050;28;843;-62
2021/12/11 02:39:18;;;;;;;;;;;;;;;13.84;60.77;100485.66;1061832;27;1459;-62
2021/12/11 02:40:09;;;;;;;;;;;;;;;13.85;60.83;100487.34;1062323;27;687;-62
2021/12/11 02:40:59;;;;;;;;;;;;;;;13.84;60.84;100491.00;1062629;27;696;-62
2021/12/11 02:41:49;;;;;;;;;;;;;;;13.85;60.59;100487.34;1062409;27;715;-62
2021/12/11 02:42:40;;;;;;;;;;;;;;;13.84;60.79;100480.28;1058302;28;842;-62
2021/12/11 02:43:30;;;;;;;;;;;;;;;13.84;60.83;100486.50;1054173;28;699;-62
2021/12/11 02:44:21;;;;;;;;;;;;;;;13.84;60.83;100496.38;1058098;28;668;-62
2021/12/11 02:45:11;;;;;;;;;;;;;;;13.84;61.52;100496.38;1061126;27;1889;-62
2021/12/11 02:46:01;;;;;;;;;;;;;;;13.84;60.85;100496.38;1062331;27;624;-62
2021/12/11 02:46:52;;;;;;;;;;;;;;;13.83;61.72;100500.00;1062308;27;1535;-62
2021/12/11 02:47:42;;;;;;;;;;;;;;;13.83;61.15;100500.00;1062068;27;1731;-62
2021/12/11 02:48:33;;;;;;;;;;;;;;;13.83;60.87;100505.38;1058742;28;621;-62
2021/12/11 02:49:23;;;;;;;;;;;;;;;13.83;60.69;100500.00;1058162;28;710;-62
2021/12/11 02:50:14;;;;;;;;;;;;;;;13.83;61.35;100500.00;1054760;28;710;-63
2021/12/11 02:51:04;;;;;;;;;;;;;;;13.82;61.45;100499.16;1055375;28;1410;-63
2021/12/11 02:51:54;;;;;;;;;;;;;;;13.82;61.07;100499.16;1062110;27;694;-63
2021/12/11 02:52:45;;;;;;;;;;;;;;;13.83;61.05;100497.34;1062248;27;671;-63
2021/12/11 02:53:35;;;;;;;;;;;;;;;13.82;61.11;100503.66;1058528;28;654;-64
2021/12/11 02:54:26;;;;;;;;;;;;;;;13.82;60.62;100503.66;1056808;28;714;-64
2021/12/11 02:55:16;;;;;;;;;;;;;;;13.82;61.35;100509.03;1060773;27;1398;-64
2021/12/11 02:56:06;;;;;;;;;;;;;;;13.81;61.61;100508.19;1062240;27;663;-64
2021/12/11 02:56:57;;;;;;;;;;;;;;;13.82;61.32;100501.00;1062314;27;1445;-64
2021/12/11 02:57:47;;;;;;;;;;;;;;;13.82;60.77;100504.53;1062350;27;740;-63
2021/12/11 02:58:38;;;;;;;;;;;;;;;13.81;60.57;100502.81;1062279;27;657;-62
2021/12/11 02:59:31;;;;;;;;;;;;;;;13.82;61.35;100503.66;1061088;27;1567;-63
2021/12/11 03:00:21;;;;;;;;;;;;;;;13.81;60.79;100508.19;1063028;27;644;-63
2021/12/11 03:01:12;;;;;;;;;;;;;;;13.81;61.04;100508.19;1059575;27;1538;-63
2021/12/11 03:02:04;;;;;;;;;;;;;;;13.81;61.54;100512.69;1058019;28;679;-62
2021/12/11 03:03:04;;;;;;;;;;;;;;;13.81;60.77;100510.00;1058581;27;1372;-62
2021/12/11 03:03:58;;;;;;;;;;;;;;;13.81;61.52;100512.69;1057296;28;675;-62
2021/12/11 03:04:53;;;;;;;;;;;;;;;13.81;61.25;100512.69;1056107;28;1913;-63
2021/12/11 03:05:47;;;;;;;;;;;;;;;13.80;60.57;100510.97;1058017;28;837;-62
2021/12/11 03:06:42;;;;;;;;;;;;;;;13.80;61.12;100513.66;1057316;28;621;-63
2021/12/11 03:07:38;;;;;;;;;;;;;;;13.80;60.40;100514.50;1057881;28;803;-62
2021/12/11 03:08:28;;;;;;;;;;;;;;;13.81;60.59;100520.72;1055468;27;811;-62
2021/12/11 03:09:19;;;;;;;;;;;;;;;13.81;60.49;100518.03;1061758;27;1489;-62
2021/12/11 03:10:09;;;;;;;;;;;;;;;13.80;60.50;100516.34;1061445;27;671;-61
2021/12/11 03:11:00;;;;;;;;;;;;;;;13.80;61.53;100519.00;1062174;27;1546;-61
2021/12/11 03:11:50;;;;;;;;;;;;;;;13.79;60.60;100515.50;1062239;27;703;-61
2021/12/11 03:12:41;;;;;;;;;;;;;;;13.79;61.34;100518.16;1062179;27;640;-61
2021/12/11 03:13:34;;;;;;;;;;;;;;;13.80;60.61;100519.00;1057881;28;641;-62
2021/12/11 03:14:24;;;;;;;;;;;;;;;13.79;61.56;100523.53;1053962;28;687;-61
2021/12/11 03:15:14;;;;;;;;;;;;;;;13.79;60.60;100520.03;1058136;28;1564;-61
2021/12/11 03:16:05;;;;;;;;;;;;;;;13.79;61.26;100520.84;1062057;27;1463;-60
2021/12/11 03:16:55;;;;;;;;;;;;;;;13.80;61.02;100527.06;1061666;27;648;-61
2021/12/11 03:17:46;;;;;;;;;;;;;;;13.79;61.47;100514.66;1061255;27;921;-61
2021/12/11 03:18:36;;;;;;;;;;;;;;;13.79;61.39;100515.50;1053572;28;660;-60
2021/12/11 03:19:27;;;;;;;;;;;;;;;13.77;61.47;100517.47;1054105;28;612;-61
2021/12/11 03:20:17;;;;;;;;;;;;;;;13.78;61.33;100518.31;1057455;28;746;-64
2021/12/11 03:21:08;;;;;;;;;;;;;;;13.78;60.69;100515.66;1058148;27;1330;-61
2021/12/11 03:21:58;;;;;;;;;;;;;;;13.78;61.25;100518.31;1053493;28;802;-62
2021/12/11 03:22:49;;;;;;;;;;;;;;;13.78;61.13;100518.31;1053422;28;694;-61
2021/12/11 03:23:39;;;;;;;;;;;;;;;13.77;61.56;100521.97;1057299;28;625;-61
2021/12/11 03:24:30;;;;;;;;;;;;;;;13.78;61.34;100526.34;1060532;27;1732;-60
2021/12/11 03:25:20;;;;;;;;;;;;;;;13.79;61.46;100528.06;1059277;27;703;-61
2021/12/11 03:26:10;;;;;;;;;;;;;;;13.78;61.33;100529.03;1057870;28;851;-62
2021/12/11 03:27:01;;;;;;;;;;;;;;;13.78;61.02;100526.34;1058905;27;1466;-62
2021/12/11 03:27:51;;;;;;;;;;;;;;;13.76;60.79;100531.84;1062325;27;638;-61
2021/12/11 03:28:42;;;;;;;;;;;;;;;13.75;61.11;100527.47;1062079;27;801;-61
2021/12/11 03:29:32;;;;;;;;;;;;;;;13.75;60.49;100532.81;1062212;27;632;-61
2021/12/11 03:30:23;;;;;;;;;;;;;;;13.76;60.88;100537.19;1062139;27;776;-61
2021/12/11 03:31:13;;;;;;;;;;;;;;;13.76;61.26;100536.34;1058878;27;1502;-61
2021/12/11 03:32:04;;;;;;;;;;;;;;;13.76;61.29;100531.00;1057998;28;636;-61
2021/12/11 03:32:54;;;;;;;;;;;;;;;13.76;61.35;100537.19;1058425;27;1394;-61
2021/12/11 03:33:44;;;;;;;;;;;;;;;13.74;61.40;100532.94;1058052;28;678;-61
2021/12/11 03:34:35;;;;;;;;;;;;;;;13.75;60.54;100532.81;1057214;28;793;-61
2021/12/11 03:35:25;;;;;;;;;;;;;;;13.77;60.74;100538.03;1062249;27;695;-61
2021/12/11 03:36:16;;;;;;;;;;;;;;;13.75;60.98;100534.66;1062015;27;679;-61
2021/12/11 03:37:06;;;;;;;;;;;;;;;13.75;60.55;100532.81;1062129;27;1035;-62
2021/12/11 03:37:56;;;;;;;;;;;;;;;13.75;60.87;100540.00;1062074;27;731;-61
2021/12/11 03:38:47;;;;;;;;;;;;;;;13.75;60.70;100545.34;1062256;27;695;-61
2021/12/11 03:39:37;;;;;;;;;;;;;;;13.76;60.61;100547.06;1057949;28;670;-61
2021/12/11 03:40:28;;;;;;;;;;;;;;;13.77;61.05;100546.09;1059146;27;620;-61
2021/12/11 03:41:18;;;;;;;;;;;;;;;13.75;60.70;100550.72;1058418;28;1582;-61
2021/12/11 03:42:09;;;;;;;;;;;;;;;13.74;60.50;100549.84;1057803;28;674;-62
2021/12/11 03:42:59;;;;;;;;;;;;;;;13.73;61.46;100548.16;1059021;27;1491;-60
2021/12/11 03:43:49;;;;;;;;;;;;;;;13.74;61.14;100546.34;1062052;27;779;-61
2021/12/11 03:44:40;;;;;;;;;;;;;;;13.73;61.08;100547.31;1059035;28;621;-61
2021/12/11 03:45:30;;;;;;;;;;;;;;;13.73;60.91;100549.97;1062172;27;736;-61
2021/12/11 03:46:21;;;;;;;;;;;;;;;13.75;60.58;100548.03;1062100;27;676;-61
2021/12/11 03:47:11;;;;;;;;;;;;;;;13.74;60.67;100549.00;1058147;28;1432;-61
2021/12/11 03:48:02;;;;;;;;;;;;;;;13.73;61.36;100548.16;1057266;28;1551;-62
2021/12/11 03:48:52;;;;;;;;;;;;;;;13.73;61.22;100553.50;1057117;28;672;-61
2021/12/11 03:49:42;;;;;;;;;;;;;;;13.73;60.66;100552.66;1057669;28;845;-61
2021/12/11 03:50:33;;;;;;;;;;;;;;;13.71;61.50;100543.91;1057555;28;637;-61
2021/12/11 03:51:24;;;;;;;;;;;;;;;13.72;61.30;100550.97;1057354;28;756;-61
2021/12/11 03:52:15;;;;;;;;;;;;;;;13.72;61.10;100546.47;1057897;28;679;-61
2021/12/11 03:53:05;;;;;;;;;;;;;;;13.73;60.86;100552.66;1060953;27;1312;-61
2021/12/11 03:53:55;;;;;;;;;;;;;;;13.72;61.41;100550.97;1061628;27;748;-61
2021/12/11 03:54:46;;;;;;;;;;;;;;;13.71;60.52;100551.94;1061357;27;1664;-61
2021/12/11 03:55:36;;;;;;;;;;;;;;;13.71;60.61;100550.09;1057659;28;998;-61
2021/12/11 03:56:27;;;;;;;;;;;;;;;13.70;61.26;100548.41;1056492;28;554;-61
2021/12/11 03:57:17;;;;;;;;;;;;;;;13.72;61.33;100545.59;1060553;27;1170;-61
2021/12/11 03:58:08;;;;;;;;;;;;;;;13.72;60.70;100548.28;1062008;27;734;-61
2021/12/11 03:59:00;;;;;;;;;;;;;;;13.71;61.05;100543.91;1061925;27;1513;-61
2021/12/11 03:59:50;;;;;;;;;;;;;;;13.70;60.64;100547.56;1060468;27;794;-59
2021/12/11 04:00:41;;;;;;;;;;;;;;;13.71;60.81;100549.25;1062006;27;620;-59
2021/12/11 04:01:31;;;;;;;;;;;;;;;13.71;61.39;100546.59;1061980;27;1143;-59
2021/12/11 04:02:22;;;;;;;;;;;;;;;13.70;60.60;100548.41;1062117;27;715;-60
2021/12/11 04:03:12;;;;;;;;;;;;;;;13.71;61.24;100549.25;1058921;27;1399;-60
2021/12/11 04:04:03;;;;;;;;;;;;;;;13.71;61.47;100541.22;1061960;27;745;-60
2021/12/11 04:04:53;;;;;;;;;;;;;;;13.72;60.99;100550.97;1056423;28;1905;-60
2021/12/11 04:05:43;;;;;;;;;;;;;;;13.71;61.27;100549.25;1053307;28;688;-61
2021/12/11 04:06:34;;;;;;;;;;;;;;;13.70;60.59;100543.03;1057958;28;657;-60
2021/12/11 04:07:24;;;;;;;;;;;;;;;13.72;61.22;100551.81;1056414;28;736;-60
2021/12/11 04:08:15;;;;;;;;;;;;;;;13.71;60.51;100557.28;1057621;28;849;-60
2021/12/11 04:09:05;;;;;;;;;;;;;;;13.70;60.60;100555.59;1060082;27;1451;-60
2021/12/11 04:09:56;;;;;;;;;;;;;;;13.70;60.95;100560.94;1061987;27;656;-60
2021/12/11 04:10:46;;;;;;;;;;;;;;;13.71;60.67;100559.97;1062131;27;684;-60
2021/12/11 04:11:36;;;;;;;;;;;;;;;13.70;60.95;100558.25;1057902;28;699;-60
2021/12/11 04:12:27;;;;;;;;;;;;;;;13.70;60.88;100563.63;1060921;27;1900;-61
2021/12/11 04:13:17;;;;;;;;;;;;;;;13.70;60.76;100575.19;1061688;27;676;-60
2021/12/11 04:14:08;;;;;;;;;;;;;;;13.70;60.88;100580.53;1060198;27;1732;-61
2021/12/11 04:14:58;;;;;;;;;;;;;;;13.71;61.47;100578.72;1059400;27;1483;-60
2021/12/11 04:15:49;;;;;;;;;;;;;;;13.69;61.36;100577.97;1061902;27;665;-60
2021/12/11 04:16:39;;;;;;;;;;;;;;;13.69;61.00;100581.50;1061904;27;771;-60
2021/12/11 04:17:29;;;;;;;;;;;;;;;13.69;60.76;100580.66;1062066;27;653;-61
2021/12/11 04:18:20;;;;;;;;;;;;;;;13.69;61.14;100583.34;1059248;27;707;-61
2021/12/11 04:19:10;;;;;;;;;;;;;;;13.71;60.86;100586.75;1061841;27;1439;-61
2021/12/11 04:20:01;;;;;;;;;;;;;;;13.70;61.41;100585.03;1061834;27;695;-60
2021/12/11 04:20:51;;;;;;;;;;;;;;;13.69;60.53;100580.66;1061544;27;1443;-61
2021/12/11 04:21:41;;;;;;;;;;;;;;;13.68;60.93;100582.50;1056404;28;708;-61
2021/12/11 04:22:32;;;;;;;;;;;;;;;13.68;61.20;100579.81;1056440;28;841;-61
2021/12/11 04:23:22;;;;;;;;;;;;;;;13.68;60.60;100576.28;1062281;27;619;-61
2021/12/11 04:24:13;;;;;;;;;;;;;;;13.68;60.96;100576.28;1061053;27;687;-61
2021/12/11 04:25:03;;;;;;;;;;;;;;;13.69;60.26;100564.59;1060886;27;1898;-61
2021/12/11 04:25:53;;;;;;;;;;;;;;;13.69;60.60;100560.09;1061997;27;637;-61
2021/12/11 04:26:45;;;;;;;;;;;;;;;13.68;61.28;100566.41;1061948;27;812;-61
2021/12/11 04:27:35;;;;;;;;;;;;;;;13.68;61.35;100566.41;1057858;28;679;-61
2021/12/11 04:28:26;;;;;;;;;;;;;;;13.68;60.58;100571.78;1058236;28;685;-61
2021/12/11 04:29:16;;;;;;;;;;;;;;;13.68;61.22;100566.41;1061839;27;1431;-61